Time;durP1;ratioP1;P1;durP2;ratioP2;P2;SDS_P1;SDS_P2;PMS_P1;PMS_P2;Temp;Humidity;BMP_temperature;BMP_pressure;BME280_temperature;BME280_humidity;BME280_pressure;Samples;Min_cycle;Max_cycle;Signal;HPM_P1;HPM_P2
2023/01/12 00:01:38;;;;;;;11.70;3.20;;;7.80;99.90;;;;;;5139784;27;20454;-63
2023/01/12 00:04:06;;;;;;;11.90;3.50;;;7.70;99.90;;;;;;5140377;27;20775;-63
2023/01/12 00:06:34;;;;;;;10.53;2.73;;;7.80;1.00;;;;;;5140819;27;20465;-64
2023/01/12 00:09:06;;;;;;;11.33;3.83;;;7.80;1.00;;;;;;5140530;27;20459;-61
2023/01/12 00:11:33;;;;;;;13.00;3.83;;;7.80;1.00;;;;;;5140368;27;20459;-64
2023/01/12 00:14:02;;;;;;;10.30;3.50;;;7.80;6.60;;;;;;5139333;27;20458;-64
2023/01/12 00:16:36;;;;;;;8.30;3.00;;;7.80;88.80;;;;;;5139715;27;20458;-65
2023/01/12 00:19:09;;;;;;;11.07;3.63;;;7.80;99.90;;;;;;5140340;27;20437;-64
2023/01/12 00:21:48;;;;;;;9.30;2.90;;;7.80;1.00;;;;;;5140797;27;20458;-64
2023/01/12 00:24:18;;;;;;;10.07;3.53;;;7.80;49.60;;;;;;5140587;27;20530;-65
2023/01/12 00:26:46;;;;;;;8.37;3.50;;;7.80;99.90;;;;;;5140739;27;20815;-63
2023/01/12 00:29:15;;;;;;;6.60;2.77;;;7.80;1.00;;;;;;5140303;27;20463;-64
2023/01/12 00:31:42;;;;;;;7.30;2.67;;;7.80;88.70;;;;;;5140454;27;20458;-64
2023/01/12 00:34:09;;;;;;;6.27;2.67;;;7.80;99.90;;;;;;5140400;27;20465;-65
2023/01/12 00:36:36;;;;;;;7.13;2.83;;;7.80;1.00;;;;;;5139965;27;20875;-65
2023/01/12 00:39:04;;;;;;;7.83;3.57;;;7.70;1.00;;;;;;5140318;27;20433;-63
2023/01/12 00:47:01;;;;;;;11.87;3.60;;;7.80;1.00;;;;;;5139486;27;20438;-65
2023/01/12 00:49:28;;;;;;;8.30;3.30;;;7.80;1.00;;;;;;5139920;27;20906;-63
2023/01/12 00:51:56;;;;;;;11.77;3.90;;;7.80;86.40;;;;;;5139571;27;20940;-65
2023/01/12 00:54:23;;;;;;;12.83;3.30;;;7.80;99.90;;;;;;5139542;27;20498;-64
2023/01/12 00:56:50;;;;;;;9.33;2.90;;;7.80;99.90;;;;;;5139166;27;20450;-67
2023/01/12 00:59:18;;;;;;;7.23;3.33;;;7.80;34.70;;;;;;5139316;27;20485;-66
2023/01/12 01:01:46;;;;;;;11.60;3.17;;;7.80;21.30;;;;;;5139080;27;20458;-65
2023/01/12 01:04:13;;;;;;;12.40;3.17;;;7.80;40.50;;;;;;5139053;27;20465;-66
2023/01/12 01:06:40;;;;;;;7.33;3.10;;;7.80;4.50;;;;;;5139236;27;20760;-65
2023/01/12 01:09:08;;;;;;;12.57;3.43;;;7.80;1.00;;;;;;5139922;27;20462;-64
2023/01/12 01:11:36;;;;;;;15.53;4.00;;;7.80;29.90;;;;;;5139480;27;20454;-66
2023/01/12 01:14:03;;;;;;;10.50;5.40;;;7.80;32.70;;;;;;5139246;27;20480;-65
2023/01/12 01:16:33;;;;;;;9.73;3.53;;;7.80;99.90;;;;;;5139174;27;20490;-66
2023/01/12 01:19:02;;;;;;;7.60;4.53;;;7.80;99.90;;;;;;5139148;27;20467;-66
2023/01/12 01:21:29;;;;;;;11.33;3.70;;;7.80;99.90;;;;;;5139364;27;20463;-66
2023/01/12 01:23:56;;;;;;;8.53;3.90;;;7.90;1.00;;;;;;5139151;27;20769;-66
2023/01/12 01:26:24;;;;;;;9.97;3.30;;;7.90;30.20;;;;;;5138728;27;20454;-67
2023/01/12 01:28:52;;;;;;;13.00;4.40;;;7.90;78.10;;;;;;5138701;27;20462;-66
2023/01/12 01:31:21;;;;;;;10.80;3.63;;;7.90;99.90;;;;;;5138411;27;20891;-66
2023/01/12 01:33:51;;;;;;;7.83;3.80;;;7.90;99.90;;;;;;5139212;27;20463;-63
2023/01/12 01:36:19;;;;;;;9.73;3.93;;;7.90;99.90;;;;;;5138735;27;20490;-67
2023/01/12 01:38:48;;;;;;;10.73;3.87;;;7.90;99.90;;;;;;5138792;27;20890;-62
2023/01/12 01:41:20;;;;;;;12.50;3.87;;;7.90;99.90;;;;;;5138659;27;20562;-65
2023/01/12 01:43:56;;;;;;;13.50;4.30;;;7.90;99.90;;;;;;5138482;27;20865;-66
2023/01/12 01:46:43;;;;;;;12.63;3.83;;;7.90;57.80;;;;;;5138038;27;20450;-64
2023/01/12 01:49:28;;;;;;;10.23;3.90;;;7.90;1.00;;;;;;5138615;27;20872;-63
2023/01/12 01:51:59;;;;;;;11.30;3.63;;;7.90;1.00;;;;;;5137889;27;20429;-63
2023/01/12 01:54:27;;;;;;;8.63;4.40;;;7.90;1.00;;;;;;5138306;27;20467;-63
2023/01/12 01:56:56;;;;;;;13.13;4.17;;;8.00;1.00;;;;;;5138391;27;20954;-64
2023/01/12 01:59:26;;;;;;;9.77;4.50;;;8.00;99.90;;;;;;5138392;27;20465;-64
2023/01/12 02:01:55;;;;;;;13.47;5.23;;;8.00;99.90;;;;;;5138153;27;20439;-64
2023/01/12 02:04:25;;;;;;;9.67;4.53;;;8.00;99.90;;;;;;5138386;27;20913;-62
2023/01/12 02:06:53;;;;;;;8.47;3.80;;;8.10;99.90;;;;;;5138532;28;20538;-63
2023/01/12 02:09:22;;;;;;;6.80;4.47;;;8.00;99.90;;;;;;5137577;27;20463;-63
2023/01/12 02:17:34;;;;;;;10.53;3.70;;;8.10;1.00;;;;;;5141883;27;20471;-63
2023/01/12 02:20:36;;;;;;;11.27;3.67;;;8.10;1.00;;;;;;5142464;27;20477;-62
2023/01/12 02:23:43;;;;;;;17.23;4.33;;;8.00;1.00;;;;;;5139012;27;20523;-64
2023/01/12 02:26:50;;;;;;;14.37;4.87;;;8.00;99.90;;;;;;5058406;28;20811;-63
2023/01/12 02:29:52;;;;;;;7.20;3.17;;;8.00;99.90;;;;;;5142046;27;20482;-63
2023/01/12 02:32:28;;;;;;;18.10;4.23;;;8.00;99.90;;;;;;5141629;27;20790;-62
2023/01/12 02:35:04;;;;;;;17.03;5.20;;;8.10;1.00;;;;;;5141912;27;20471;-63
2023/01/12 02:37:38;;;;;;;9.00;3.70;;;8.10;99.90;;;;;;5142549;27;20464;-62
2023/01/12 02:40:11;;;;;;;7.90;3.60;;;8.10;99.90;;;;;;5141736;27;20458;-62
2023/01/12 02:42:40;;;;;;;14.90;4.67;;;8.10;99.90;;;;;;5141954;27;20469;-63
2023/01/12 02:45:19;;;;;;;9.40;4.03;;;8.10;99.90;;;;;;5142349;27;20474;-62
2023/01/12 02:47:55;;;;;;;12.37;4.37;;;8.10;99.90;;;;;;5142166;27;20462;-63
2023/01/12 02:50:29;;;;;;;12.43;3.93;;;8.10;1.00;;;;;;5142954;27;20453;-64
2023/01/12 02:53:01;;;;;;;13.77;3.23;;;8.20;1.00;;;;;;5142429;27;20754;-63
2023/01/12 02:55:30;;;;;;;11.27;4.30;;;8.10;1.00;;;;;;5142175;27;20486;-64
2023/01/12 02:57:58;;;;;;;12.97;4.23;;;8.10;1.00;;;;;;5141803;27;20462;-65
2023/01/12 03:00:26;;;;;;;11.23;4.00;;;8.10;99.90;;;;;;5141746;27;20459;-64
2023/01/12 03:02:55;;;;;;;12.20;3.60;;;8.10;99.90;;;;;;5141813;27;20733;-63
2023/01/12 03:05:22;;;;;;;20.00;3.97;;;8.10;1.00;;;;;;5141957;27;20512;-65
2023/01/12 03:07:54;;;;;;;17.17;4.93;;;8.10;99.90;;;;;;5141604;27;20458;-64
2023/01/12 03:10:52;;;;;;;11.10;4.07;;;8.20;1.00;;;;;;5141873;27;20528;-64
2023/01/12 03:13:20;;;;;;;6.00;3.50;;;8.10;99.90;;;;;;5124800;27;20825;-64
2023/01/12 03:15:55;;;;;;;12.63;3.40;;;8.10;1.00;;;;;;5142092;27;20984;-65
2023/01/12 03:18:30;;;;;;;13.13;4.33;;;8.10;97.90;;;;;;5141257;27;20493;-65
2023/01/12 03:21:02;;;;;;;8.60;3.10;;;8.10;99.90;;;;;;5141714;27;20466;-65
2023/01/12 03:23:36;;;;;;;12.63;3.40;;;8.10;1.00;;;;;;5141847;27;20936;-64
2023/01/12 03:26:05;;;;;;;12.00;3.60;;;8.10;1.00;;;;;;5141530;27;20430;-67
2023/01/12 03:28:35;;;;;;;10.13;3.90;;;8.10;99.90;;;;;;5140982;27;20462;-64
2023/01/12 03:31:09;;;;;;;13.30;4.47;;;8.00;1.00;;;;;;5141069;27;20795;-65
2023/01/12 03:33:39;;;;;;;9.83;3.30;;;8.00;8.70;;;;;;5141567;27;20894;-64
2023/01/12 03:36:16;;;;;;;12.47;3.23;;;8.10;91.00;;;;;;5141027;27;20490;-66
2023/01/12 03:38:52;;;;;;;10.10;3.13;;;8.00;1.00;;;;;;5141077;27;20496;-64
2023/01/12 03:41:28;;;;;;;14.03;3.57;;;8.00;99.90;;;;;;5140984;27;20462;-67
2023/01/12 03:44:01;;;;;;;8.57;3.23;;;8.00;99.90;;;;;;5141218;27;20458;-62
2023/01/12 03:46:33;;;;;;;7.93;2.80;;;8.00;99.90;;;;;;5140564;27;20454;-66
2023/01/12 03:49:07;;;;;;;10.80;3.80;;;8.00;99.90;;;;;;5140803;27;20465;-64
2023/01/12 03:51:37;;;;;;;5.77;3.30;;;8.00;99.90;;;;;;5141110;27;20920;-67
2023/01/12 03:54:08;;;;;;;14.73;2.97;;;7.90;1.00;;;;;;5140457;27;20706;-66
2023/01/12 03:56:36;;;;;;;11.13;3.07;;;7.90;4.60;;;;;;5140823;27;20493;-65
2023/01/12 03:59:05;;;;;;;10.23;2.90;;;7.90;64.10;;;;;;5140521;27;20766;-65
2023/01/12 04:01:32;;;;;;;6.53;3.27;;;7.90;99.90;;;;;;5140563;27;20458;-65
2023/01/12 04:03:59;;;;;;;10.27;3.33;;;7.90;99.90;;;;;;5139796;27;20501;-65
2023/01/12 04:06:28;;;;;;;8.70;3.37;;;7.90;99.90;;;;;;5140502;27;20429;-64
2023/01/12 04:08:55;;;;;;;13.63;3.90;;;7.90;99.90;;;;;;5140677;27;20458;-65
2023/01/12 04:14:07;;;;;;;11.27;4.10;;;7.80;99.90;;;;;;5139659;27;20431;-64
2023/01/12 04:16:34;;;;;;;12.80;2.67;;;7.80;99.90;;;;;;5140064;27;20490;-63
2023/01/12 04:19:01;;;;;;;4.60;2.80;;;7.80;99.90;;;;;;5140178;27;20488;-66
2023/01/12 04:24:14;;;;;;;8.90;2.80;;;7.80;99.90;;;;;;5119156;28;20885;-64
2023/01/12 04:26:41;;;;;;;7.50;3.03;;;7.80;99.90;;;;;;5119323;28;20525;-64
2023/01/12 04:29:08;;;;;;;9.43;3.00;;;7.70;99.90;;;;;;5118646;28;20901;-63
2023/01/12 04:31:35;;;;;;;4.37;2.27;;;7.70;99.90;;;;;;5119500;28;20448;-64
2023/01/12 04:34:03;;;;;;;5.33;3.70;;;7.80;99.90;;;;;;5119092;28;20951;-63
2023/01/12 04:36:32;;;;;;;7.10;2.83;;;7.80;99.90;;;;;;5119364;28;20772;-62
2023/01/12 04:38:59;;;;;;;7.57;2.70;;;7.70;99.90;;;;;;5119549;28;20497;-62
2023/01/12 04:41:26;;;;;;;9.50;3.00;;;7.70;99.90;;;;;;5119841;28;20463;-63
2023/01/12 04:43:53;;;;;;;12.57;3.70;;;7.70;99.90;;;;;;5119412;28;20847;-64
2023/01/12 04:46:20;;;;;;;7.13;3.03;;;7.70;99.90;;;;;;5118983;28;20430;-64
2023/01/12 04:48:47;;;;;;;8.80;3.20;;;7.80;99.90;;;;;;5119669;28;20440;-64
2023/01/12 04:51:14;;;;;;;6.33;3.00;;;7.70;99.90;;;;;;5132758;27;20948;-62
2023/01/12 04:53:43;;;;;;;7.60;3.70;;;7.70;99.90;;;;;;5139453;27;20467;-65
2023/01/12 04:56:10;;;;;;;6.70;2.63;;;7.70;99.90;;;;;;5139015;27;20954;-62
2023/01/12 04:58:37;;;;;;;7.03;2.67;;;7.70;99.90;;;;;;5139525;27;20509;-64
2023/01/12 05:01:12;;;;;;;9.03;2.53;;;7.70;99.90;;;;;;5139621;27;20466;-67
2023/01/12 05:03:39;;;;;;;6.30;4.20;;;7.70;99.90;;;;;;5139083;27;20513;-64
2023/01/12 05:06:07;;;;;;;9.80;2.63;;;7.70;99.90;;;;;;5139293;27;20433;-65
2023/01/12 05:11:21;;;;;;;9.93;3.77;;;7.70;99.90;;;;;;5138818;27;20433;-63
2023/01/12 05:13:48;;;;;;;4.90;2.60;;;7.70;99.90;;;;;;5139337;27;20754;-65
2023/01/12 05:16:17;;;;;;;6.40;2.40;;;7.60;99.90;;;;;;5139063;27;20490;-64
2023/01/12 05:18:45;;;;;;;6.43;2.40;;;7.60;99.90;;;;;;5138364;27;20750;-64
2023/01/12 05:21:12;;;;;;;6.17;2.50;;;7.60;99.90;;;;;;5138421;27;20459;-62
2023/01/12 05:23:40;;;;;;;7.70;3.10;;;7.60;99.90;;;;;;5138781;27;20459;-63
2023/01/12 05:26:07;;;;;;;6.93;3.13;;;7.60;99.90;;;;;;5139260;27;20465;-63
2023/01/12 05:28:36;;;;;;;7.70;2.43;;;7.60;99.90;;;;;;5139014;27;20901;-63
2023/01/12 05:31:06;;;;;;;9.23;3.67;;;7.70;99.90;;;;;;5139131;27;20490;-63
2023/01/12 05:33:33;;;;;;;7.47;2.70;;;7.70;99.90;;;;;;5139221;27;20451;-65
2023/01/12 05:36:03;;;;;;;8.87;2.93;;;7.60;99.90;;;;;;5138884;27;20753;-64
2023/01/12 05:38:30;;;;;;;5.07;2.20;;;7.60;99.90;;;;;;5139030;27;20459;-62
2023/01/12 05:40:59;;;;;;;11.87;5.80;;;7.60;99.90;;;;;;5139096;27;20464;-63
2023/01/12 05:46:13;;;;;;;6.50;2.23;;;7.60;99.90;;;;;;5137726;27;20442;-64
2023/01/12 05:48:40;;;;;;;8.10;2.23;;;7.60;99.90;;;;;;5139188;27;20459;-63
2023/01/12 05:51:09;;;;;;;4.17;2.10;;;7.60;99.90;;;;;;5139531;27;20589;-64
2023/01/12 05:53:36;;;;;;;3.77;2.33;;;7.60;99.90;;;;;;5138972;27;20825;-61
2023/01/12 05:56:07;;;;;;;6.97;3.03;;;7.60;99.90;;;;;;5138855;27;20508;-62
2023/01/12 05:58:34;;;;;;;5.03;1.97;;;7.60;99.90;;;;;;5138986;27;20557;-61
2023/01/12 06:01:05;;;;;;;4.80;1.90;;;7.50;99.90;;;;;;5139165;27;20459;-62
2023/01/12 06:03:34;;;;;;;4.80;2.30;;;7.60;99.90;;;;;;5138629;27;20895;-63
2023/01/12 06:06:01;;;;;;;6.10;3.03;;;7.60;99.90;;;;;;5138380;27;20469;-62
2023/01/12 06:08:28;;;;;;;3.13;1.87;;;7.50;99.90;;;;;;5138410;28;20479;-62
2023/01/12 06:10:59;;;;;;;6.00;2.70;;;7.50;99.90;;;;;;5138097;28;20850;-62
2023/01/12 06:16:11;;;;;;;3.97;2.17;;;7.50;99.90;;;;;;5138219;28;20478;-63
2023/01/12 06:18:40;;;;;;;4.70;2.80;;;7.50;99.90;;;;;;5136795;28;20461;-63
2023/01/12 06:21:10;;;;;;;4.83;2.47;;;7.50;99.90;;;;;;5136800;28;20465;-63
2023/01/12 06:23:37;;;;;;;8.60;4.07;;;7.40;99.90;;;;;;5136900;28;20433;-64
2023/01/12 06:26:06;;;;;;;4.53;2.83;;;7.40;99.90;;;;;;5136500;28;20459;-63
2023/01/12 06:28:33;;;;;;;3.33;2.50;;;7.40;99.90;;;;;;5136400;28;20495;-63
2023/01/12 06:31:02;;;;;;;21.47;13.23;;;7.50;99.90;;;;;;5137191;28;20490;-62
2023/01/12 06:33:30;;;;;;;6.50;3.20;;;7.40;99.90;;;;;;5138198;27;20425;-64
2023/01/12 06:35:59;;;;;;;13.33;6.27;;;7.40;99.90;;;;;;5137967;28;20486;-62
2023/01/12 06:38:28;;;;;;;5.30;3.20;;;7.40;99.90;;;;;;5138206;28;20459;-63
2023/01/12 06:41:00;;;;;;;5.83;3.33;;;7.40;99.90;;;;;;5137231;28;20454;-64
2023/01/12 06:43:27;;;;;;;4.67;3.30;;;7.40;99.90;;;;;;5136519;28;20465;-63
2023/01/12 06:45:55;;;;;;;5.80;2.23;;;7.40;99.90;;;;;;5136452;28;20532;-64
2023/01/12 06:48:24;;;;;;;3.30;2.70;;;7.40;99.90;;;;;;5136450;28;20441;-62
2023/01/12 06:50:53;;;;;;;6.50;2.20;;;7.40;99.90;;;;;;5136672;27;20462;-65
2023/01/12 06:53:21;;;;;;;3.10;2.20;;;7.30;99.90;;;;;;5137077;28;20461;-63
2023/01/12 06:55:49;;;;;;;3.67;2.23;;;7.30;99.90;;;;;;5136647;28;20494;-63
2023/01/12 06:58:16;;;;;;;5.90;3.73;;;7.40;99.90;;;;;;5139263;27;20497;-62
2023/01/12 07:00:44;;;;;;;5.80;2.90;;;7.30;99.90;;;;;;5141777;27;20462;-63
2023/01/12 07:03:16;;;;;;;4.43;2.30;;;7.30;99.90;;;;;;5140677;27;20460;-64
2023/01/12 07:05:44;;;;;;;3.83;2.43;;;7.40;99.90;;;;;;5138990;27;20458;-62
2023/01/12 07:08:14;;;;;;;4.07;3.17;;;7.40;99.90;;;;;;5139648;27;20455;-64
2023/01/12 07:10:43;;;;;;;7.20;3.50;;;7.40;99.90;;;;;;5139447;27;20675;-63
2023/01/12 07:13:10;;;;;;;4.30;2.70;;;7.40;99.90;;;;;;5139562;27;20761;-64
2023/01/12 07:15:37;;;;;;;2.87;1.90;;;7.40;99.90;;;;;;5138986;27;20876;-63
2023/01/12 07:18:05;;;;;;;4.43;2.67;;;7.40;99.90;;;;;;5139765;27;20482;-63
2023/01/12 07:20:32;;;;;;;3.03;2.03;;;7.40;99.90;;;;;;5141367;27;20459;-63
2023/01/12 07:22:59;;;;;;;3.20;2.57;;;7.40;99.90;;;;;;5140649;27;20463;-64
2023/01/12 07:25:26;;;;;;;3.50;1.90;;;7.50;99.90;;;;;;5139965;27;20966;-62
2023/01/12 07:27:57;;;;;;;2.73;2.07;;;7.40;99.90;;;;;;5139196;27;20532;-63
2023/01/12 07:30:25;;;;;;;2.57;1.97;;;7.40;99.90;;;;;;5139211;27;20486;-63
2023/01/12 07:32:52;;;;;;;5.03;2.23;;;7.40;99.90;;;;;;5138402;27;20465;-63
2023/01/12 07:35:20;;;;;;;3.30;2.03;;;7.40;99.90;;;;;;5137395;27;20981;-63
2023/01/12 07:37:48;;;;;;;3.40;2.40;;;7.40;99.90;;;;;;5137833;27;20628;-62
2023/01/12 07:40:16;;;;;;;4.50;2.20;;;7.50;99.90;;;;;;5139100;27;20805;-62
2023/01/12 07:42:43;;;;;;;5.17;2.07;;;7.50;99.90;;;;;;5139466;27;20473;-63
2023/01/12 07:45:12;;;;;;;5.00;2.13;;;7.50;99.90;;;;;;5139958;27;20465;-62
2023/01/12 07:47:40;;;;;;;4.37;2.03;;;7.50;99.90;;;;;;5140585;27;20430;-62
2023/01/12 07:50:07;;;;;;;4.97;2.50;;;7.60;99.90;;;;;;5140922;27;20508;-62
2023/01/12 07:52:35;;;;;;;5.50;2.90;;;7.60;99.90;;;;;;5140882;27;20455;-64
2023/01/12 07:55:02;;;;;;;7.47;2.70;;;7.60;99.90;;;;;;5141530;27;20480;-63
2023/01/12 07:57:29;;;;;;;4.10;3.17;;;7.60;99.90;;;;;;5140721;27;20591;-62
2023/01/12 07:59:56;;;;;;;7.10;2.93;;;7.70;99.90;;;;;;5140462;27;20511;-64
2023/01/12 08:02:24;;;;;;;18.13;12.40;;;7.70;99.90;;;;;;5140700;27;20466;-64
2023/01/12 08:04:53;;;;;;;7.83;4.60;;;7.70;99.90;;;;;;5140677;27;20469;-65
2023/01/12 08:07:20;;;;;;;33.97;19.10;;;7.80;99.90;;;;;;5140490;27;20545;-64
2023/01/12 08:09:48;;;;;;;19.00;12.10;;;7.90;99.90;;;;;;5139337;27;20799;-65
2023/01/12 08:12:15;;;;;;;10.47;5.40;;;7.90;99.90;;;;;;5140279;27;20744;-64
2023/01/12 08:14:42;;;;;;;5.33;4.30;;;7.90;99.90;;;;;;5140927;27;20761;-62
2023/01/12 08:17:14;;;;;;;5.50;4.23;;;8.00;99.90;;;;;;5139913;27;20493;-63
2023/01/12 08:19:47;;;;;;;16.83;4.60;;;8.10;99.90;;;;;;5140009;27;20915;-64
2023/01/12 08:22:19;;;;;;;6.43;3.70;;;8.10;99.90;;;;;;5139286;27;20437;-64
2023/01/12 08:24:54;;;;;;;4.73;3.80;;;8.20;99.90;;;;;;5139506;27;20501;-64
2023/01/12 08:27:25;;;;;;;6.97;3.27;;;8.20;99.90;;;;;;5139877;27;20465;-65
2023/01/12 08:29:55;;;;;;;6.47;3.40;;;8.20;99.90;;;;;;5139281;27;20916;-65
2023/01/12 08:32:22;;;;;;;7.33;3.70;;;8.30;99.90;;;;;;5138521;27;20486;-64
2023/01/12 08:34:53;;;;;;;5.60;3.00;;;8.30;99.90;;;;;;5138439;27;20462;-63
2023/01/12 08:37:23;;;;;;;4.63;3.90;;;8.40;99.90;;;;;;5138638;27;20588;-63
2023/01/12 08:39:51;;;;;;;5.13;4.00;;;8.50;99.90;;;;;;5138641;27;20462;-63
2023/01/12 08:42:19;;;;;;;5.23;3.50;;;8.50;99.90;;;;;;5138975;27;20465;-64
2023/01/12 08:44:46;;;;;;;5.50;3.10;;;8.60;99.90;;;;;;5139595;27;20458;-63
2023/01/12 08:47:18;;;;;;;5.93;3.40;;;8.60;99.90;;;;;;5139488;27;20512;-65
2023/01/12 08:49:45;;;;;;;6.83;3.10;;;8.70;99.90;;;;;;5139030;27;20468;-63
2023/01/12 08:52:15;;;;;;;7.47;2.97;;;8.70;99.90;;;;;;5139437;27;20496;-63
2023/01/12 08:54:42;;;;;;;9.17;3.30;;;8.70;99.90;;;;;;5139579;27;20718;-64
2023/01/12 08:57:09;;;;;;;4.70;2.83;;;8.70;99.90;;;;;;5138916;27;20481;-65
2023/01/12 08:59:37;;;;;;;5.00;2.70;;;8.70;99.90;;;;;;5138048;27;20788;-64
2023/01/12 09:02:04;;;;;;;6.00;3.57;;;8.80;99.90;;;;;;5138704;27;20429;-65
2023/01/12 09:04:31;;;;;;;5.13;3.00;;;8.80;99.90;;;;;;5138456;27;20774;-64
2023/01/12 09:06:59;;;;;;;5.60;2.63;;;8.80;99.90;;;;;;5138244;27;21010;-63
2023/01/12 09:09:28;;;;;;;4.10;2.83;;;8.80;99.90;;;;;;5138619;27;20537;-64
2023/01/12 09:11:55;;;;;;;9.03;2.93;;;8.80;99.90;;;;;;5138100;27;20832;-63
2023/01/12 09:14:24;;;;;;;5.37;2.80;;;8.90;99.90;;;;;;5138709;27;20538;-65
2023/01/12 09:16:51;;;;;;;5.83;2.47;;;8.90;99.90;;;;;;5138642;27;20463;-63
2023/01/12 09:19:18;;;;;;;3.23;2.40;;;8.90;99.90;;;;;;5138027;27;20455;-64
2023/01/12 09:21:45;;;;;;;4.23;2.50;;;8.90;99.90;;;;;;5138073;27;20459;-64
2023/01/12 09:24:14;;;;;;;9.60;4.67;;;8.90;99.90;;;;;;5138304;27;20532;-64
2023/01/12 09:26:44;;;;;;;7.47;3.93;;;8.90;99.90;;;;;;5138032;27;20489;-64
2023/01/12 09:29:12;;;;;;;11.43;10.10;;;8.90;99.90;;;;;;5138643;27;20465;-64
2023/01/12 09:31:41;;;;;;;5.40;3.90;;;8.90;99.90;;;;;;5138477;27;20463;-66
2023/01/12 09:34:09;;;;;;;7.13;2.60;;;9.00;99.90;;;;;;5138597;27;20480;-65
2023/01/12 09:36:38;;;;;;;3.90;2.70;;;9.00;99.90;;;;;;5138539;27;20455;-66
2023/01/12 09:39:06;;;;;;;6.10;2.23;;;9.00;99.90;;;;;;5138430;27;20522;-63
2023/01/12 09:47:21;;;;;;;8.70;3.20;;;9.00;99.90;;;;;;5117166;28;20427;-64
2023/01/12 09:49:53;;;;;;;3.30;2.27;;;9.00;99.90;;;;;;5117497;28;20462;-63
2023/01/12 09:52:25;;;;;;;2.80;2.50;;;9.00;99.90;;;;;;5116438;28;20458;-64
2023/01/12 09:54:52;;;;;;;3.27;2.13;;;9.00;99.90;;;;;;5115999;28;20558;-64
2023/01/12 09:57:55;;;;;;;3.53;2.77;;;9.00;99.90;;;;;;5115431;28;20495;-64
2023/01/12 10:00:26;;;;;;;4.40;2.47;;;9.00;99.90;;;;;;5114674;28;20466;-64
2023/01/12 10:03:02;;;;;;;4.87;2.40;;;9.00;99.90;;;;;;5115627;28;20744;-65
2023/01/12 10:05:38;;;;;;;2.60;2.00;;;9.10;99.90;;;;;;5116040;28;20429;-64
2023/01/12 10:08:05;;;;;;;3.23;2.40;;;9.10;99.90;;;;;;5116322;28;20447;-66
2023/01/12 10:10:33;;;;;;;3.23;2.00;;;9.10;99.90;;;;;;5116098;28;20463;-65
2023/01/12 10:13:07;;;;;;;5.80;2.37;;;9.10;99.90;;;;;;5117533;28;20933;-64
2023/01/12 10:15:44;;;;;;;4.13;2.40;;;9.10;99.90;;;;;;5117643;28;20503;-65
2023/01/12 10:18:19;;;;;;;7.43;2.47;;;9.10;99.90;;;;;;5117139;28;20488;-63
2023/01/12 10:20:46;;;;;;;3.40;2.10;;;9.20;99.90;;;;;;5117569;28;20759;-63
2023/01/12 10:23:18;;;;;;;4.10;2.53;;;9.10;99.90;;;;;;5117380;28;20460;-63
2023/01/12 10:25:47;;;;;;;3.57;2.33;;;9.20;99.90;;;;;;5117385;28;20467;-63
2023/01/12 10:28:28;;;;;;;4.87;2.40;;;9.20;99.90;;;;;;5117280;28;20493;-62
2023/01/12 10:30:58;;;;;;;5.00;2.73;;;9.20;99.90;;;;;;5117704;28;20466;-64
2023/01/12 10:33:27;;;;;;;2.73;1.97;;;9.20;99.90;;;;;;5120019;28;20459;-63
2023/01/12 10:35:57;;;;;;;4.47;2.33;;;9.20;99.90;;;;;;5121333;28;20434;-64
2023/01/12 10:38:28;;;;;;;3.70;2.30;;;9.30;99.90;;;;;;5121614;28;20757;-65
2023/01/12 10:41:15;;;;;;;3.30;2.10;;;9.30;99.90;;;;;;5121728;28;20434;-64
2023/01/12 10:43:44;;;;;;;6.47;2.90;;;9.20;99.90;;;;;;5120939;28;20470;-64
2023/01/12 10:46:15;;;;;;;5.73;2.20;;;9.20;99.90;;;;;;5121036;28;20459;-64
2023/01/12 10:48:44;;;;;;;6.07;2.90;;;9.30;99.90;;;;;;5121409;28;20463;-65
2023/01/12 10:51:23;;;;;;;4.43;2.60;;;9.20;99.90;;;;;;5121422;28;20463;-65
2023/01/12 10:53:53;;;;;;;5.83;2.77;;;9.20;99.90;;;;;;5120829;28;20467;-64
2023/01/12 10:56:27;;;;;;;5.33;2.67;;;9.30;99.90;;;;;;5121166;28;20860;-66
2023/01/12 10:58:57;;;;;;;4.63;2.33;;;9.30;99.90;;;;;;5121329;28;20495;-64
2023/01/12 11:01:26;;;;;;;4.73;2.60;;;9.30;99.90;;;;;;5121058;28;20896;-64
2023/01/12 11:04:05;;;;;;;5.17;2.27;;;9.30;99.90;;;;;;5120722;28;20509;-65
2023/01/12 11:06:32;;;;;;;2.50;1.63;;;9.30;99.90;;;;;;5121332;28;20942;-64
2023/01/12 11:09:18;;;;;;;3.40;2.17;;;9.30;99.90;;;;;;5120940;28;20940;-65
2023/01/12 11:11:45;;;;;;;3.10;2.07;;;9.30;99.90;;;;;;5120907;28;20478;-66
2023/01/12 11:14:24;;;;;;;7.03;2.50;;;9.30;99.90;;;;;;5120693;28;20872;-66
2023/01/12 11:16:52;;;;;;;4.43;2.60;;;9.30;99.90;;;;;;5120960;28;20494;-65
2023/01/12 11:19:26;;;;;;;4.43;2.33;;;9.40;99.90;;;;;;5120844;28;20559;-66
2023/01/12 11:21:59;;;;;;;3.90;2.23;;;9.30;99.90;;;;;;5120489;28;20979;-64
2023/01/12 11:24:37;;;;;;;4.23;2.63;;;9.40;99.90;;;;;;5120561;28;20919;-66
2023/01/12 11:27:13;;;;;;;5.50;2.57;;;9.40;99.90;;;;;;5120618;28;20463;-65
2023/01/12 11:29:51;;;;;;;3.60;2.07;;;9.40;99.90;;;;;;5119256;28;20582;-66
2023/01/12 11:32:28;;;;;;;3.63;2.37;;;9.40;99.90;;;;;;5120397;28;20466;-66
2023/01/12 11:34:58;;;;;;;3.73;2.33;;;9.40;99.90;;;;;;5120669;28;20459;-67
2023/01/12 11:37:26;;;;;;;6.33;3.07;;;9.40;99.90;;;;;;5120615;28;20463;-65
2023/01/12 11:40:01;;;;;;;5.00;2.70;;;9.40;99.90;;;;;;5120141;28;20466;-64
2023/01/12 11:45:22;;;;;;;4.40;2.47;;;9.50;99.90;;;;;;5118698;28;20439;-64
2023/01/12 11:47:56;;;;;;;7.53;2.97;;;9.50;99.90;;;;;;5119710;28;20455;-63
2023/01/12 11:50:28;;;;;;;4.60;2.97;;;9.40;99.90;;;;;;5120358;28;20465;-63
2023/01/12 11:52:56;;;;;;;3.50;2.40;;;9.40;99.90;;;;;;5120234;28;20460;-62
2023/01/12 11:55:37;;;;;;;3.30;2.83;;;9.50;99.90;;;;;;5120056;28;20894;-62
2023/01/12 11:58:15;;;;;;;4.90;3.07;;;9.50;99.90;;;;;;5119569;28;20557;-63
2023/01/12 12:00:55;;;;;;;5.63;4.23;;;9.50;99.90;;;;;;5119835;28;20463;-62
2023/01/12 12:03:39;;;;;;;3.87;2.60;;;9.60;99.90;;;;;;5119898;28;20549;-63
2023/01/12 12:06:23;;;;;;;7.80;3.17;;;9.50;99.90;;;;;;5119778;28;20495;-63
2023/01/12 12:08:59;;;;;;;5.07;3.40;;;9.50;99.90;;;;;;5119922;28;20498;-62
2023/01/12 12:11:36;;;;;;;4.93;2.90;;;9.50;99.90;;;;;;5120361;28;20506;-63
2023/01/12 12:14:19;;;;;;;4.60;3.03;;;9.50;99.90;;;;;;5119552;28;20463;-62
2023/01/12 12:16:56;;;;;;;5.93;3.03;;;9.60;99.90;;;;;;5119903;28;20914;-62
2023/01/12 12:19:32;;;;;;;5.70;2.40;;;9.60;99.90;;;;;;5119684;28;20475;-63
2023/01/12 12:22:09;;;;;;;4.93;2.40;;;9.70;99.90;;;;;;5118806;27;20467;-63
2023/01/12 12:25:01;;;;;;;3.83;2.50;;;9.70;99.90;;;;;;5122068;27;20440;-63
2023/01/12 12:27:46;;;;;;;4.87;2.60;;;9.70;99.90;;;;;;5135814;27;20459;-65
2023/01/12 12:30:32;;;;;;;6.63;2.77;;;9.70;99.90;;;;;;5139099;27;20478;-63
2023/01/12 12:33:10;;;;;;;3.00;2.20;;;9.70;99.90;;;;;;5139862;27;20455;-65
2023/01/12 12:35:57;;;;;;;5.80;2.77;;;9.60;99.90;;;;;;5139364;27;20458;-66
2023/01/12 12:38:32;;;;;;;4.23;2.53;;;9.60;99.90;;;;;;5140082;27;20497;-64
2023/01/12 12:47:06;;;;;;;5.77;2.20;;;9.60;99.90;;;;;;5138348;27;20537;-67
2023/01/12 12:49:37;;;;;;;7.23;2.57;;;9.50;99.90;;;;;;5139426;27;20745;-66
2023/01/12 12:52:07;;;;;;;7.83;2.60;;;9.50;99.90;;;;;;5139132;27;20503;-65
2023/01/12 12:54:35;;;;;;;3.27;2.40;;;9.60;99.90;;;;;;5139396;27;20443;-65
2023/01/12 12:57:04;;;;;;;3.77;2.87;;;9.60;99.90;;;;;;5138937;27;20459;-65
2023/01/12 12:59:54;;;;;;;4.70;2.37;;;9.60;99.90;;;;;;5138036;27;20496;-65
2023/01/12 13:02:38;;;;;;;3.93;2.07;;;9.60;99.90;;;;;;5137482;27;20462;-65
2023/01/12 13:05:09;;;;;;;5.17;2.17;;;9.60;99.90;;;;;;5138095;27;20441;-65
2023/01/12 13:07:44;;;;;;;3.00;2.20;;;9.60;99.90;;;;;;5136946;27;20565;-66
2023/01/12 13:10:28;;;;;;;3.50;2.00;;;9.60;99.90;;;;;;5134176;27;20783;-64
2023/01/12 13:13:04;;;;;;;3.27;2.17;;;9.60;99.90;;;;;;5119052;27;20555;-65
2023/01/12 13:15:36;;;;;;;2.67;2.03;;;9.60;99.90;;;;;;5135475;27;20494;-67
2023/01/12 13:18:05;;;;;;;4.20;2.50;;;9.70;99.90;;;;;;5138034;27;20459;-65
2023/01/12 13:20:52;;;;;;;4.33;2.30;;;9.70;99.90;;;;;;5138431;27;20463;-65
2023/01/12 13:23:47;;;;;;;2.43;2.07;;;9.70;99.90;;;;;;5137468;27;20742;-64
2023/01/12 13:26:38;;;;;;;3.10;2.03;;;9.70;99.90;;;;;;5137146;27;20457;-64
2023/01/12 13:29:44;;;;;;;5.03;2.10;;;9.70;99.90;;;;;;5135984;27;20428;-63
2023/01/12 13:32:42;;;;;;;5.30;2.40;;;9.70;99.90;;;;;;5122531;27;20563;-65
2023/01/12 13:35:58;;;;;;;2.47;2.00;;;9.70;99.90;;;;;;5081141;28;20478;-65
2023/01/12 13:38:48;;;;;;;3.83;2.33;;;9.70;99.90;;;;;;5116029;28;20497;-64
2023/01/12 13:44:25;;;;;;;4.43;1.97;;;9.70;99.90;;;;;;5073114;28;20441;-65
2023/01/12 13:47:02;;;;;;;3.57;3.10;;;9.70;99.90;;;;;;5108168;28;20459;-64
2023/01/12 13:49:32;;;;;;;2.50;2.27;;;9.70;99.90;;;;;;5116840;28;20451;-62
2023/01/12 13:52:02;;;;;;;4.33;2.20;;;9.70;99.90;;;;;;5116373;28;20429;-66
2023/01/12 13:54:30;;;;;;;5.37;2.27;;;9.70;99.90;;;;;;5115854;28;20551;-66
2023/01/12 13:57:01;;;;;;;4.67;2.13;;;9.60;99.90;;;;;;5116516;28;20459;-66
2023/01/12 13:59:29;;;;;;;4.03;2.30;;;9.60;99.90;;;;;;5116228;28;20483;-65
2023/01/12 14:01:57;;;;;;;2.67;2.07;;;9.60;99.90;;;;;;5117961;28;20510;-66